Time;durP1;ratioP1;P1;durP2;ratioP2;P2;SDS_P1;SDS_P2;PMS_P1;PMS_P2;Temp;Humidity;BMP_temperature;BMP_pressure;BME280_temperature;BME280_humidity;BME280_pressure;Samples;Min_cycle;Max_cycle;Signal;HPM_P1;HPM_P2
2022/09/07 00:01:42;;;;;;;20.23;18.33;;;17.90;1.00;;;;;;4986768;28;20194;-54
2022/09/07 00:04:08;;;;;;;20.50;18.60;;;17.90;1.00;;;;;;4990231;28;20223;-54
2022/09/07 00:06:34;;;;;;;21.20;19.20;;;17.90;1.00;;;;;;4986694;28;20281;-54
2022/09/07 00:09:03;;;;;;;21.47;19.47;;;17.90;1.00;;;;;;4985232;28;20183;-53
2022/09/07 00:11:28;;;;;;;21.63;19.63;;;17.90;1.00;;;;;;4986369;28;20420;-56
2022/09/07 00:13:55;;;;;;;19.23;17.53;;;17.80;1.00;;;;;;4986279;28;20439;-53
2022/09/07 00:16:23;;;;;;;19.30;17.63;;;17.80;1.00;;;;;;4990020;28;20244;-54
2022/09/07 00:18:51;;;;;;;19.10;17.40;;;17.90;1.00;;;;;;4988781;28;20441;-52
2022/09/07 00:21:17;;;;;;;20.00;18.30;;;17.90;1.00;;;;;;4988593;28;20441;-55
2022/09/07 00:23:43;;;;;;;20.50;18.60;;;17.80;1.00;;;;;;4988737;28;20519;-52
2022/09/07 00:26:12;;;;;;;19.93;18.23;;;17.80;1.00;;;;;;4989591;28;20211;-53
2022/09/07 00:28:38;;;;;;;19.30;17.50;;;17.80;1.00;;;;;;4985964;28;20943;-55
2022/09/07 00:31:13;;;;;;;17.70;16.00;;;17.80;1.00;;;;;;4989001;28;20457;-53
2022/09/07 00:33:38;;;;;;;20.00;18.20;;;17.70;1.00;;;;;;4985131;28;20511;-54
2022/09/07 00:36:04;;;;;;;20.80;18.90;;;17.70;1.00;;;;;;4983855;28;21172;-54
2022/09/07 00:38:30;;;;;;;19.73;17.63;;;17.80;1.00;;;;;;4984514;28;20321;-53
2022/09/07 00:40:56;;;;;;;18.90;17.27;;;17.70;1.00;;;;;;4992100;28;20540;-54
2022/09/07 00:43:31;;;;;;;20.77;18.93;;;17.70;1.00;;;;;;4989528;28;20233;-52
2022/09/07 00:45:56;;;;;;;19.63;17.90;;;17.70;1.00;;;;;;4990619;28;20631;-55
2022/09/07 00:48:27;;;;;;;19.67;17.87;;;17.70;1.00;;;;;;4988338;28;20518;-55
2022/09/07 00:50:57;;;;;;;19.27;17.37;;;17.60;1.00;;;;;;4987297;28;20194;-54
2022/09/07 00:53:28;;;;;;;20.13;18.00;;;17.70;1.00;;;;;;4984350;28;20795;-54
2022/09/07 00:55:56;;;;;;;18.73;17.07;;;17.70;1.00;;;;;;4985676;28;20446;-54
2022/09/07 00:58:23;;;;;;;20.30;18.30;;;17.70;1.00;;;;;;4980805;28;20452;-53
2022/09/07 01:00:49;;;;;;;20.63;18.77;;;17.70;1.00;;;;;;4987560;28;20462;-54
2022/09/07 01:03:18;;;;;;;20.40;18.57;;;17.60;1.00;;;;;;4986796;28;20950;-55
2022/09/07 01:06:13;;;;;;;20.67;18.57;;;17.60;1.00;;;;;;4989073;28;20469;-56
2022/09/07 01:08:40;;;;;;;21.53;19.10;;;17.60;1.00;;;;;;4988115;28;20424;-54
2022/09/07 01:11:05;;;;;;;19.67;17.80;;;17.60;1.00;;;;;;4987001;28;20420;-52
2022/09/07 01:13:31;;;;;;;18.57;16.93;;;17.50;1.00;;;;;;4988981;28;20442;-53
2022/09/07 01:16:20;;;;;;;19.57;17.73;;;17.50;1.00;;;;;;4987775;28;20186;-54
2022/09/07 01:18:56;;;;;;;18.60;16.90;;;17.50;1.00;;;;;;4983232;28;20192;-54
2022/09/07 01:21:43;;;;;;;18.63;16.87;;;17.50;1.00;;;;;;4988043;28;20925;-54
2022/09/07 01:24:23;;;;;;;17.80;16.20;;;17.50;1.00;;;;;;4987499;28;20849;-54
2022/09/07 01:27:06;;;;;;;18.27;16.67;;;17.50;1.00;;;;;;4982197;28;20416;-54
2022/09/07 01:29:39;;;;;;;17.93;16.40;;;17.50;1.00;;;;;;4988132;28;20534;-54
2022/09/07 01:32:17;;;;;;;17.60;16.00;;;17.50;1.00;;;;;;4981786;28;20952;-56
2022/09/07 01:34:50;;;;;;;18.97;17.23;;;17.50;1.00;;;;;;4984840;28;20467;-53
2022/09/07 01:37:46;;;;;;;17.57;16.10;;;17.50;1.00;;;;;;4989097;28;20446;-54
2022/09/07 01:40:23;;;;;;;18.67;16.97;;;17.50;1.00;;;;;;4986050;28;20458;-52
2022/09/07 01:43:03;;;;;;;18.13;16.33;;;17.40;1.00;;;;;;4985909;28;20477;-54
2022/09/07 01:45:34;;;;;;;18.70;17.10;;;17.40;1.00;;;;;;4986644;28;21087;-54
2022/09/07 01:48:04;;;;;;;20.93;18.87;;;17.40;1.00;;;;;;4992448;28;20451;-52
2022/09/07 01:50:51;;;;;;;18.33;16.73;;;17.50;1.00;;;;;;4987326;28;21067;-54
2022/09/07 01:54:05;;;;;;;19.97;18.17;;;17.50;1.00;;;;;;4990307;28;20545;-54
2022/09/07 01:56:39;;;;;;;19.37;16.73;;;17.50;1.00;;;;;;4891580;29;20430;-54
2022/09/07 01:59:31;;;;;;;18.00;16.23;;;17.50;1.00;;;;;;4974369;28;20470;-55
2022/09/07 02:02:08;;;;;;;18.53;16.73;;;17.50;1.00;;;;;;4978941;28;20441;-54
2022/09/07 02:04:48;;;;;;;17.60;16.00;;;17.50;1.00;;;;;;4988211;28;20492;-55
2022/09/07 02:07:33;;;;;;;17.77;16.00;;;17.50;1.00;;;;;;4987438;28;20435;-53
2022/09/07 02:10:16;;;;;;;18.03;16.47;;;17.50;1.00;;;;;;4983321;28;20949;-54
2022/09/07 02:12:56;;;;;;;17.90;16.10;;;17.50;1.00;;;;;;4985660;28;20449;-55
2022/09/07 02:15:31;;;;;;;19.30;17.50;;;17.50;1.00;;;;;;4986476;28;20448;-53
2022/09/07 02:18:04;;;;;;;18.13;16.53;;;17.40;1.00;;;;;;4991091;28;20415;-55
2022/09/07 02:20:35;;;;;;;16.43;15.03;;;17.50;1.00;;;;;;4989490;28;20449;-54
2022/09/07 02:23:07;;;;;;;17.67;15.97;;;17.50;1.00;;;;;;4986834;28;20569;-54
2022/09/07 02:25:39;;;;;;;18.70;16.80;;;17.60;1.00;;;;;;4981397;28;20504;-58
2022/09/07 02:28:11;;;;;;;18.20;16.50;;;17.50;1.00;;;;;;4989727;28;20503;-54
2022/09/07 02:30:37;;;;;;;17.70;16.00;;;17.60;1.00;;;;;;4990868;28;20442;-52
2022/09/07 02:33:03;;;;;;;18.10;16.40;;;17.60;1.00;;;;;;4984945;28;20489;-54
2022/09/07 02:35:29;;;;;;;18.37;16.60;;;17.50;1.00;;;;;;4985111;28;20447;-54
2022/09/07 02:37:56;;;;;;;17.33;15.77;;;17.70;1.00;;;;;;4986528;28;20420;-53
2022/09/07 02:40:21;;;;;;;16.97;15.53;;;17.50;1.00;;;;;;4986579;28;20183;-54
2022/09/07 02:42:47;;;;;;;17.57;15.97;;;17.50;1.00;;;;;;4989015;28;20451;-53
2022/09/07 02:45:15;;;;;;;17.13;15.70;;;17.50;1.00;;;;;;4989675;28;20221;-55
2022/09/07 02:48:09;;;;;;;18.63;17.03;;;17.50;1.00;;;;;;4988403;28;20789;-53
2022/09/07 02:51:13;;;;;;;17.33;15.83;;;17.50;1.00;;;;;;4956137;28;20536;-53
2022/09/07 02:53:53;;;;;;;17.27;15.77;;;17.50;1.00;;;;;;4993725;28;20428;-51
2022/09/07 02:56:19;;;;;;;17.77;16.17;;;17.50;1.00;;;;;;4989669;28;20429;-53
2022/09/07 02:58:48;;;;;;;17.87;16.33;;;17.50;1.00;;;;;;4987183;28;20801;-54
2022/09/07 03:01:26;;;;;;;16.93;15.53;;;17.40;1.00;;;;;;4991078;28;20187;-54
2022/09/07 03:04:22;;;;;;;17.03;15.70;;;17.40;1.00;;;;;;4990181;28;20467;-52
2022/09/07 03:07:00;;;;;;;18.03;16.17;;;17.40;1.00;;;;;;4995985;28;20428;-53
2022/09/07 03:09:31;;;;;;;18.43;16.60;;;17.40;1.00;;;;;;4990194;28;20496;-54
2022/09/07 03:12:00;;;;;;;16.17;14.67;;;17.40;1.00;;;;;;4991662;28;20762;-56
2022/09/07 03:14:29;;;;;;;17.40;15.70;;;17.40;1.00;;;;;;4985844;28;20452;-52
2022/09/07 03:16:56;;;;;;;18.07;16.07;;;17.40;1.00;;;;;;4999255;28;20764;-53
2022/09/07 03:19:21;;;;;;;17.47;15.87;;;17.40;1.00;;;;;;4987059;28;20452;-54
2022/09/07 03:21:47;;;;;;;18.90;16.87;;;17.30;1.00;;;;;;4995744;28;20419;-55
2022/09/07 03:24:12;;;;;;;17.90;16.17;;;17.30;1.00;;;;;;4985580;28;21522;-54
2022/09/07 03:26:42;;;;;;;19.40;15.37;;;17.30;1.00;;;;;;4983958;28;20217;-55
2022/09/07 03:29:07;;;;;;;17.10;15.60;;;17.40;1.00;;;;;;4988612;28;20190;-53
2022/09/07 03:31:34;;;;;;;17.03;15.63;;;17.50;1.00;;;;;;4993314;28;20936;-53
2022/09/07 03:33:59;;;;;;;16.87;15.47;;;17.70;1.00;;;;;;4995755;28;20710;-53
2022/09/07 03:36:25;;;;;;;16.83;15.33;;;17.30;1.00;;;;;;4982926;28;20445;-54
2022/09/07 03:38:50;;;;;;;17.27;15.57;;;17.30;1.00;;;;;;4987796;28;20230;-54
2022/09/07 03:41:16;;;;;;;17.40;15.80;;;17.30;1.00;;;;;;4990195;28;20233;-53
2022/09/07 03:43:42;;;;;;;16.30;14.63;;;17.30;1.00;;;;;;4988628;28;20189;-54
2022/09/07 03:46:09;;;;;;;17.33;15.83;;;17.30;1.00;;;;;;4988163;28;20473;-54
2022/09/07 03:48:35;;;;;;;18.47;16.97;;;17.20;1.00;;;;;;4992487;28;20194;-54
2022/09/07 03:51:11;;;;;;;17.20;15.57;;;17.20;1.00;;;;;;4990745;28;20817;-53
2022/09/07 03:53:39;;;;;;;16.50;15.00;;;17.20;1.00;;;;;;4987703;28;20978;-54
2022/09/07 03:56:08;;;;;;;17.30;15.90;;;17.30;1.00;;;;;;4997295;28;20835;-52
2022/09/07 03:58:34;;;;;;;17.77;15.97;;;17.30;1.00;;;;;;4988709;28;20460;-53
2022/09/07 04:01:06;;;;;;;17.50;15.90;;;17.30;1.00;;;;;;4990079;28;20451;-54
2022/09/07 04:03:32;;;;;;;17.10;15.60;;;17.30;1.00;;;;;;4990411;28;20432;-53
2022/09/07 04:05:59;;;;;;;15.93;14.53;;;17.30;1.00;;;;;;4988391;28;20476;-53
2022/09/07 04:08:27;;;;;;;16.90;15.40;;;17.40;1.00;;;;;;4990964;28;20421;-53
2022/09/07 04:10:55;;;;;;;16.60;15.00;;;17.30;1.00;;;;;;4991485;28;20457;-56
2022/09/07 04:13:21;;;;;;;16.70;15.30;;;17.30;1.00;;;;;;4988570;28;20427;-56
2022/09/07 04:15:47;;;;;;;16.90;15.40;;;17.30;1.00;;;;;;4989010;28;20457;-55
2022/09/07 04:18:12;;;;;;;17.87;16.17;;;17.30;1.00;;;;;;4987181;28;20183;-55
2022/09/07 04:20:38;;;;;;;17.17;15.57;;;17.30;1.00;;;;;;4990234;28;20195;-52
2022/09/07 04:23:03;;;;;;;17.43;15.70;;;17.30;1.00;;;;;;4971772;28;20194;-52
2022/09/07 04:25:29;;;;;;;16.90;15.30;;;17.30;1.00;;;;;;4989631;28;20602;-55
2022/09/07 04:27:55;;;;;;;18.27;16.53;;;17.30;1.00;;;;;;4988823;28;20175;-54
2022/09/07 04:30:21;;;;;;;17.47;15.67;;;17.30;1.00;;;;;;4992275;28;20217;-56
2022/09/07 04:32:46;;;;;;;17.03;15.53;;;17.40;1.00;;;;;;4990425;28;20429;-56
2022/09/07 04:35:13;;;;;;;16.67;15.17;;;17.40;1.00;;;;;;4988982;28;20615;-55
2022/09/07 04:37:39;;;;;;;16.70;15.10;;;17.30;1.00;;;;;;4989813;28;20183;-53
2022/09/07 04:40:04;;;;;;;17.37;15.30;;;17.30;1.00;;;;;;4990135;28;20453;-54
2022/09/07 04:42:30;;;;;;;18.20;15.10;;;17.30;1.00;;;;;;4990939;28;20229;-54
2022/09/07 04:44:56;;;;;;;18.03;16.23;;;17.30;1.00;;;;;;4991102;28;20472;-54
2022/09/07 04:47:22;;;;;;;17.53;16.00;;;17.50;1.00;;;;;;4991010;28;20273;-54
2022/09/07 04:49:51;;;;;;;17.17;15.47;;;17.40;1.00;;;;;;4990923;28;20238;-53
2022/09/07 04:52:17;;;;;;;17.30;15.67;;;17.50;1.00;;;;;;4990203;28;20412;-53
2022/09/07 04:54:46;;;;;;;16.40;14.90;;;17.50;1.00;;;;;;4992088;28;20437;-55
2022/09/07 04:57:12;;;;;;;16.73;15.27;;;17.50;1.00;;;;;;4980083;28;20520;-56
2022/09/07 04:59:37;;;;;;;18.40;16.50;;;17.60;1.00;;;;;;4985592;28;21001;-53
2022/09/07 05:02:03;;;;;;;17.20;15.63;;;17.60;1.00;;;;;;4990005;28;20194;-54
2022/09/07 05:04:29;;;;;;;17.00;15.50;;;17.70;1.00;;;;;;4989770;28;20210;-54
2022/09/07 05:06:54;;;;;;;16.67;15.17;;;17.80;1.00;;;;;;4990114;28;20191;-55
2022/09/07 05:09:20;;;;;;;16.37;14.90;;;17.90;1.00;;;;;;4991301;28;20194;-55
2022/09/07 05:11:45;;;;;;;16.03;14.53;;;18.00;1.00;;;;;;4990780;28;20326;-54
2022/09/07 05:14:11;;;;;;;17.20;15.73;;;18.00;1.00;;;;;;4990754;28;20643;-54
2022/09/07 05:16:37;;;;;;;17.73;16.10;;;18.00;1.00;;;;;;4984967;28;20194;-54
2022/09/07 05:19:04;;;;;;;18.97;17.17;;;18.00;1.00;;;;;;4990091;28;20852;-58
2022/09/07 05:21:33;;;;;;;16.80;15.20;;;18.10;1.00;;;;;;4994451;28;20221;-56
2022/09/07 05:24:00;;;;;;;17.15;15.65;;;18.10;1.00;;;;;;4988523;28;20420;-54
2022/09/07 05:26:29;;;;;;;17.80;15.57;;;18.20;1.00;;;;;;4993964;28;22483;-54
2022/09/07 05:28:54;;;;;;;16.70;15.00;;;18.20;1.00;;;;;;4991136;28;20449;-55
2022/09/07 05:31:22;;;;;;;18.40;14.93;;;18.20;1.00;;;;;;4989670;28;20464;-55
2022/09/07 05:33:52;;;;;;;18.13;16.23;;;18.20;1.00;;;;;;4990337;28;20457;-54
2022/09/07 05:36:19;;;;;;;17.13;15.43;;;18.20;1.00;;;;;;4990480;28;20430;-54
2022/09/07 05:38:45;;;;;;;17.43;15.27;;;;;;;;;;4990953;28;20446;-55
2022/09/07 05:41:17;;;;;;;18.80;17.03;;;18.20;1.00;;;;;;4990157;28;20481;-52
2022/09/07 05:43:43;;;;;;;17.50;15.90;;;18.30;1.00;;;;;;4990327;28;20456;-54
2022/09/07 05:46:09;;;;;;;18.10;16.20;;;18.30;1.00;;;;;;4983751;28;20449;-53
2022/09/07 05:48:36;;;;;;;18.13;16.33;;;18.40;1.00;;;;;;4989996;28;20795;-53
2022/09/07 05:51:06;;;;;;;19.60;15.17;;;18.50;1.00;;;;;;4989382;28;20847;-56
2022/09/07 05:53:36;;;;;;;17.10;15.53;;;18.60;1.00;;;;;;4989940;28;20446;-55
2022/09/07 05:56:06;;;;;;;18.93;14.80;;;18.80;1.00;;;;;;4988976;28;20449;-52
2022/09/07 05:58:33;;;;;;;16.17;14.70;;;18.90;1.00;;;;;;4992672;28;20449;-53
2022/09/07 06:01:05;;;;;;;15.30;14.03;;;19.10;1.00;;;;;;4987318;28;20784;-55
2022/09/07 06:03:32;;;;;;;15.43;14.10;;;19.30;1.00;;;;;;4990537;28;20460;-54
2022/09/07 06:06:09;;;;;;;15.17;13.87;;;19.50;1.00;;;;;;4986880;28;21047;-55
2022/09/07 06:08:37;;;;;;;15.23;13.70;;;19.70;1.00;;;;;;4988844;28;20444;-54
2022/09/07 06:11:07;;;;;;;16.37;14.93;;;19.80;1.00;;;;;;4989288;28;20420;-53
2022/09/07 06:13:33;;;;;;;16.13;14.50;;;20.00;1.00;;;;;;4989894;28;20408;-54
2022/09/07 06:16:19;;;;;;;16.77;15.07;;;20.20;1.00;;;;;;4989588;28;20445;-55
2022/09/07 06:18:47;;;;;;;16.30;14.80;;;20.40;1.00;;;;;;4996749;28;20453;-56
2022/09/07 06:21:15;;;;;;;15.00;13.63;;;20.50;1.00;;;;;;4994163;28;20483;-54
2022/09/07 06:23:42;;;;;;;16.13;14.30;;;20.60;1.00;;;;;;4994714;28;20436;-56
2022/09/07 06:26:09;;;;;;;14.20;13.00;;;20.70;1.00;;;;;;4995026;28;20432;-54
2022/09/07 06:28:37;;;;;;;15.97;14.47;;;20.70;1.00;;;;;;4992775;28;20420;-53
2022/09/07 06:31:09;;;;;;;15.50;14.17;;;20.90;1.00;;;;;;4996325;28;21198;-54
2022/09/07 06:33:35;;;;;;;15.10;13.80;;;21.00;1.00;;;;;;4994776;28;20437;-54
2022/09/07 06:36:06;;;;;;;15.30;13.80;;;21.10;1.00;;;;;;4993738;28;20464;-53
2022/09/07 06:38:35;;;;;;;15.70;14.40;;;21.10;1.00;;;;;;4992089;28;20190;-55
2022/09/07 06:41:09;;;;;;;16.17;14.60;;;21.10;1.00;;;;;;4975035;28;20454;-53
2022/09/07 06:43:35;;;;;;;15.77;14.50;;;21.00;1.00;;;;;;4993182;28;20467;-54
2022/09/07 06:46:01;;;;;;;15.60;14.20;;;21.00;1.00;;;;;;4993843;28;20506;-54
2022/09/07 06:48:27;;;;;;;15.57;14.17;;;21.10;1.00;;;;;;4993421;28;20202;-55
2022/09/07 06:51:10;;;;;;;15.70;14.30;;;21.20;1.00;;;;;;4992371;28;20229;-52
2022/09/07 06:53:36;;;;;;;15.10;13.70;;;21.20;1.00;;;;;;4994351;28;20477;-54
2022/09/07 06:56:08;;;;;;;16.53;14.40;;;21.10;1.00;;;;;;4993453;28;20481;-54
2022/09/07 06:58:34;;;;;;;15.73;13.43;;;21.10;1.00;;;;;;4992943;28;20495;-55
2022/09/07 07:01:09;;;;;;;14.07;12.87;;;21.10;1.00;;;;;;4998687;28;20457;-53
2022/09/07 07:03:35;;;;;;;15.07;13.77;;;21.20;1.00;;;;;;4992002;28;20432;-53
2022/09/07 07:06:04;;;;;;;14.80;13.60;;;21.30;1.00;;;;;;4988730;28;20535;-54
2022/09/07 07:08:30;;;;;;;14.77;13.27;;;21.60;1.00;;;;;;5001122;28;20431;-53
2022/09/07 07:11:01;;;;;;;14.40;13.10;;;21.70;1.00;;;;;;5009204;28;20527;-55
2022/09/07 07:13:26;;;;;;;13.83;12.53;;;21.90;1.00;;;;;;4995207;28;20663;-55
2022/09/07 07:15:52;;;;;;;14.63;13.13;;;22.00;1.00;;;;;;5003293;28;20596;-54
2022/09/07 07:18:18;;;;;;;13.93;12.67;;;22.10;1.00;;;;;;4993772;28;20195;-53
2022/09/07 07:20:44;;;;;;;14.60;13.30;;;22.10;1.00;;;;;;4993853;28;20221;-53
2022/09/07 07:23:10;;;;;;;14.70;13.20;;;22.20;1.00;;;;;;4993766;28;20192;-55
2022/09/07 07:25:36;;;;;;;14.27;13.07;;;22.20;1.00;;;;;;4993547;28;20293;-54
2022/09/07 07:28:03;;;;;;;14.23;12.53;;;22.30;1.00;;;;;;4992897;28;20511;-54
2022/09/07 07:30:29;;;;;;;14.63;13.23;;;22.30;1.00;;;;;;4993312;28;20190;-55
2022/09/07 07:32:56;;;;;;;14.80;13.43;;;22.30;1.00;;;;;;4993484;28;20611;-54
2022/09/07 07:35:22;;;;;;;14.27;13.17;;;22.40;1.00;;;;;;4993396;28;20838;-56
2022/09/07 07:37:51;;;;;;;12.87;11.67;;;22.60;1.00;;;;;;4993411;28;20531;-53
2022/09/07 07:40:17;;;;;;;16.03;13.40;;;22.60;1.00;;;;;;4993275;28;20423;-54
2022/09/07 07:42:43;;;;;;;14.20;12.87;;;22.60;1.00;;;;;;4992579;28;20437;-54
2022/09/07 07:45:09;;;;;;;13.80;11.50;;;22.70;1.00;;;;;;4993183;28;20223;-54
2022/09/07 07:47:35;;;;;;;13.97;12.77;;;22.70;1.00;;;;;;4992491;28;20185;-54
2022/09/07 07:50:01;;;;;;;14.80;13.33;;;22.60;1.00;;;;;;4993197;28;20404;-55
2022/09/07 07:52:38;;;;;;;13.40;12.10;;;22.60;1.00;;;;;;4992921;28;20204;-54
2022/09/07 07:55:05;;;;;;;14.23;13.23;;;22.60;1.00;;;;;;4993071;28;20445;-54
2022/09/07 07:57:30;;;;;;;15.30;13.80;;;22.80;1.00;;;;;;4992834;28;20424;-54
2022/09/07 07:59:56;;;;;;;13.30;12.30;;;23.10;1.00;;;;;;4992898;28;20442;-54
2022/09/07 08:02:22;;;;;;;13.40;12.27;;;23.30;1.00;;;;;;4993174;28;20194;-54
2022/09/07 08:04:48;;;;;;;13.80;12.70;;;23.50;1.00;;;;;;4992700;28;20322;-55
2022/09/07 08:07:14;;;;;;;13.40;12.30;;;23.60;1.00;;;;;;4993080;28;20413;-55
2022/09/07 08:09:45;;;;;;;12.77;11.60;;;23.70;1.00;;;;;;4992716;28;20531;-54
2022/09/07 08:12:16;;;;;;;12.80;11.80;;;23.80;1.00;;;;;;4992087;28;20477;-54
2022/09/07 08:14:41;;;;;;;12.47;11.27;;;23.90;1.00;;;;;;4992421;28;20412;-54
2022/09/07 08:17:12;;;;;;;12.63;11.63;;;24.00;1.00;;;;;;4992152;28;20516;-54
2022/09/07 08:19:38;;;;;;;13.37;12.07;;;24.00;1.00;;;;;;4991822;28;20302;-54
2022/09/07 08:22:04;;;;;;;13.23;12.13;;;23.90;1.00;;;;;;4992154;28;20412;-54
2022/09/07 08:24:30;;;;;;;13.20;12.10;;;23.90;1.00;;;;;;4992667;28;20445;-55
2022/09/07 08:26:56;;;;;;;12.33;11.30;;;24.20;1.00;;;;;;4991683;28;20629;-53
2022/09/07 08:29:22;;;;;;;12.47;11.40;;;24.40;1.00;;;;;;4997018;28;20469;-54
2022/09/07 08:31:48;;;;;;;12.83;11.50;;;24.50;1.00;;;;;;5011711;28;20195;-54
2022/09/07 08:34:14;;;;;;;14.40;12.47;;;24.60;1.00;;;;;;5011596;28;20452;-54
2022/09/07 08:36:39;;;;;;;12.10;11.00;;;24.80;1.00;;;;;;5007112;28;20265;-56
2022/09/07 08:39:05;;;;;;;12.90;11.73;;;24.90;1.00;;;;;;4991932;28;20190;-55
2022/09/07 08:41:30;;;;;;;13.87;11.97;;;25.00;1.00;;;;;;4991704;28;20230;-54
2022/09/07 08:44:02;;;;;;;11.30;10.40;;;25.20;1.00;;;;;;4991974;28;20199;-53
2022/09/07 08:46:41;;;;;;;12.70;11.60;;;25.40;1.00;;;;;;4991913;28;20242;-54
2022/09/07 08:49:15;;;;;;;12.60;11.53;;;25.50;1.00;;;;;;4974454;28;20469;-52
2022/09/07 08:51:52;;;;;;;13.00;11.90;;;25.70;1.00;;;;;;4992311;28;20439;-55
2022/09/07 08:54:17;;;;;;;12.60;11.50;;;26.00;1.00;;;;;;4992124;28;20799;-54
2022/09/07 08:56:49;;;;;;;13.03;11.93;;;26.10;1.00;;;;;;5006237;28;20417;-53
2022/09/07 08:59:25;;;;;;;12.40;11.30;;;26.20;1.00;;;;;;5011470;28;20491;-53
2022/09/07 09:01:51;;;;;;;12.60;11.70;;;26.20;1.00;;;;;;5005278;28;20753;-54
2022/09/07 09:04:25;;;;;;;12.97;11.87;;;26.20;1.00;;;;;;4991823;28;20431;-53
2022/09/07 09:06:56;;;;;;;12.27;11.20;;;26.30;1.00;;;;;;4992074;28;20187;-54
2022/09/07 09:09:45;;;;;;;12.70;11.70;;;26.50;1.00;;;;;;4991828;28;20464;-52
2022/09/07 09:12:51;;;;;;;13.07;11.97;;;26.70;1.00;;;;;;4991285;28;20440;-54
2022/09/07 09:15:37;;;;;;;12.60;11.50;;;26.70;1.00;;;;;;4942336;28;20424;-54
2022/09/07 09:18:45;;;;;;;12.90;11.53;;;26.60;1.00;;;;;;4991722;28;20486;-55
2022/09/07 09:21:17;;;;;;;12.90;11.80;;;26.50;1.00;;;;;;4991417;28;20450;-55
2022/09/07 09:23:46;;;;;;;11.70;10.90;;;26.60;1.00;;;;;;4991731;28;20482;-53
2022/09/07 09:26:23;;;;;;;12.47;11.40;;;26.90;1.00;;;;;;4990952;28;21012;-54
2022/09/07 09:28:48;;;;;;;12.70;11.70;;;27.00;1.00;;;;;;4991500;28;20480;-53
2022/09/07 09:31:19;;;;;;;12.07;10.90;;;27.10;1.00;;;;;;4991410;28;20935;-54
2022/09/07 09:34:08;;;;;;;11.63;10.53;;;27.10;1.00;;;;;;4990212;28;20215;-54
2022/09/07 09:36:52;;;;;;;11.90;11.00;;;27.20;1.00;;;;;;4976242;28;20425;-55
2022/09/07 09:39:33;;;;;;;12.07;11.07;;;27.20;1.00;;;;;;4991053;28;20417;-54
2022/09/07 09:42:13;;;;;;;11.70;10.60;;;27.30;1.00;;;;;;4991171;28;20498;-56
2022/09/07 09:44:41;;;;;;;12.70;11.60;;;27.50;1.00;;;;;;4991307;28;20784;-56
2022/09/07 09:47:29;;;;;;;11.20;10.30;;;27.70;1.00;;;;;;4991403;28;20467;-55
2022/09/07 09:49:56;;;;;;;12.43;10.80;;;28.00;1.00;;;;;;4991549;28;20434;-55
2022/09/07 09:52:23;;;;;;;11.03;10.23;;;28.20;1.00;;;;;;4992475;28;20493;-53
2022/09/07 09:54:51;;;;;;;12.23;11.37;;;28.10;1.00;;;;;;4995393;28;20508;-53
2022/09/07 09:57:51;;;;;;;11.30;10.20;;;28.00;1.00;;;;;;4995355;28;20837;-53
2022/09/07 10:00:20;;;;;;;11.93;10.87;;;27.90;1.00;;;;;;4988009;28;20512;-55
2022/09/07 10:03:01;;;;;;;12.23;11.23;;;27.80;1.00;;;;;;4995203;28;20591;-53
2022/09/07 10:05:37;;;;;;;12.10;10.90;;;27.50;1.00;;;;;;4994826;28;20791;-54
2022/09/07 10:08:22;;;;;;;11.63;10.73;;;27.50;1.00;;;;;;4995197;28;20993;-56
2022/09/07 10:11:00;;;;;;;12.37;11.17;;;27.30;1.00;;;;;;4995142;28;20412;-53
2022/09/07 10:13:51;;;;;;;11.50;10.33;;;27.40;1.00;;;;;;4994991;28;20877;-55
2022/09/07 10:16:17;;;;;;;10.47;9.60;;;27.50;1.00;;;;;;4994887;28;20425;-54
2022/09/07 10:18:57;;;;;;;10.60;9.70;;;27.70;1.00;;;;;;4994631;28;20424;-54
2022/09/07 10:21:24;;;;;;;11.27;10.33;;;27.60;1.00;;;;;;4994271;28;20199;-54
2022/09/07 10:24:16;;;;;;;12.10;11.20;;;27.50;1.00;;;;;;5006677;28;20748;-54
2022/09/07 10:26:46;;;;;;;11.10;10.10;;;27.50;1.00;;;;;;5013507;28;20467;-52
2022/09/07 10:29:28;;;;;;;13.33;11.10;;;27.50;1.00;;;;;;5014267;28;20532;-54
2022/09/07 10:32:33;;;;;;;12.00;10.90;;;27.50;1.00;;;;;;5014082;28;20458;-53
2022/09/07 10:35:07;;;;;;;11.20;10.30;;;27.50;1.00;;;;;;5014339;28;20412;-54
2022/09/07 10:38:13;;;;;;;12.57;11.40;;;27.30;1.00;;;;;;5014340;28;20991;-51
2022/09/07 10:40:45;;;;;;;12.00;11.07;;;27.30;1.00;;;;;;5001132;28;20447;-55
2022/09/07 10:43:15;;;;;;;13.03;11.93;;;27.30;1.00;;;;;;4994435;28;20459;-52
2022/09/07 10:46:13;;;;;;;12.97;11.77;;;27.30;1.00;;;;;;4994195;28;20465;-54
2022/09/07 10:48:45;;;;;;;12.50;11.40;;;27.20;1.00;;;;;;4994099;28;20456;-55
2022/09/07 10:51:41;;;;;;;12.60;11.03;;;27.10;1.00;;;;;;4994412;28;20848;-56
2022/09/07 10:54:28;;;;;;;12.10;11.07;;;27.10;1.00;;;;;;4994277;28;20445;-55
2022/09/07 10:57:14;;;;;;;12.30;11.40;;;27.00;1.00;;;;;;4993927;28;20501;-55
2022/09/07 11:00:01;;;;;;;14.63;10.60;;;27.20;1.00;;;;;;4994015;28;20460;-54
2022/09/07 11:02:58;;;;;;;12.37;11.27;;;27.30;1.00;;;;;;4993626;28;20532;-55
2022/09/07 11:05:42;;;;;;;10.70;9.60;;;27.50;1.00;;;;;;4994077;28;20456;-54
2022/09/07 11:08:42;;;;;;;11.20;10.33;;;27.60;1.00;;;;;;4993902;28;20397;-54
2022/09/07 11:11:39;;;;;;;11.60;10.50;;;27.70;1.00;;;;;;4993358;28;20415;-54
2022/09/07 11:14:13;;;;;;;11.83;10.83;;;27.80;1.00;;;;;;4993404;28;20413;-54
2022/09/07 11:16:51;;;;;;;11.60;10.60;;;27.60;1.00;;;;;;4993979;28;20888;-54
2022/09/07 11:19:43;;;;;;;10.97;10.17;;;27.60;1.00;;;;;;5013430;28;20947;-54
2022/09/07 11:22:28;;;;;;;11.63;10.63;;;27.70;1.00;;;;;;4967193;28;20492;-55
2022/09/07 11:25:22;;;;;;;11.77;10.80;;;27.90;1.00;;;;;;5012912;28;20918;-54
2022/09/07 11:27:52;;;;;;;12.10;10.73;;;28.00;1.00;;;;;;5013255;28;20437;-54
2022/09/07 11:30:22;;;;;;;10.97;10.17;;;28.20;1.00;;;;;;5012850;28;20898;-55
2022/09/07 11:32:54;;;;;;;11.43;10.53;;;28.30;1.00;;;;;;5013346;28;20407;-54
2022/09/07 11:35:51;;;;;;;12.47;11.27;;;28.30;1.00;;;;;;5001176;28;20442;-54
2022/09/07 11:38:29;;;;;;;11.97;11.00;;;28.30;1.00;;;;;;4988483;28;20450;-55
2022/09/07 11:41:14;;;;;;;11.50;10.60;;;28.30;1.00;;;;;;4992527;28;20458;-54
2022/09/07 11:43:45;;;;;;;11.57;10.63;;;28.30;1.00;;;;;;4993442;28;20445;-53
2022/09/07 11:46:20;;;;;;;11.97;11.00;;;28.40;1.00;;;;;;4993124;28;20484;-54
2022/09/07 11:48:54;;;;;;;12.70;11.60;;;28.40;1.00;;;;;;4993454;28;20411;-55
2022/09/07 11:51:40;;;;;;;11.80;10.90;;;28.40;1.00;;;;;;5010987;28;20442;-55
2022/09/07 11:54:47;;;;;;;12.47;11.40;;;28.30;1.00;;;;;;5012550;28;20444;-55
2022/09/07 11:57:42;;;;;;;11.00;10.10;;;28.20;1.00;;;;;;4944807;28;20436;-53
2022/09/07 12:00:16;;;;;;;12.07;10.97;;;28.30;1.00;;;;;;4992699;28;20931;-54
2022/09/07 12:02:57;;;;;;;11.70;10.63;;;28.60;1.00;;;;;;4993026;28;20436;-54
2022/09/07 12:05:40;;;;;;;11.97;11.00;;;28.60;1.00;;;;;;4992674;28;20437;-54
2022/09/07 12:08:32;;;;;;;11.77;10.80;;;28.60;1.00;;;;;;4992518;28;20835;-53
2022/09/07 12:11:26;;;;;;;11.57;10.67;;;28.50;1.00;;;;;;4992410;28;20446;-53
2022/09/07 12:14:23;;;;;;;11.80;10.80;;;28.40;1.00;;;;;;4992548;28;20815;-55
2022/09/07 12:17:22;;;;;;;11.53;10.53;;;28.30;1.00;;;;;;4992408;28;20451;-54
2022/09/07 12:20:11;;;;;;;11.43;10.40;;;28.20;1.00;;;;;;4992698;28;20770;-55
2022/09/07 12:22:37;;;;;;;10.80;9.90;;;28.00;1.00;;;;;;4992617;28;20947;-55
2022/09/07 12:25:08;;;;;;;11.30;10.40;;;27.90;1.00;;;;;;4992271;28;20883;-53
2022/09/07 12:27:33;;;;;;;11.97;10.97;;;27.60;1.00;;;;;;4991858;28;20414;-54
2022/09/07 12:30:02;;;;;;;11.40;10.40;;;27.50;1.00;;;;;;4991965;28;20484;-53
2022/09/07 12:32:46;;;;;;;10.30;9.30;;;27.30;1.00;;;;;;4991944;28;20201;-53
2022/09/07 12:35:27;;;;;;;12.17;10.90;;;27.20;1.00;;;;;;4992572;28;20547;-53
2022/09/07 12:37:53;;;;;;;10.90;10.00;;;26.90;1.00;;;;;;4992358;28;20556;-54
2022/09/07 12:43:12;;;;;;;12.10;11.10;;;26.70;1.00;;;;;;4992340;28;20473;-54
2022/09/07 12:45:37;;;;;;;11.30;10.50;;;26.60;1.00;;;;;;5000576;28;20565;-56
2022/09/07 12:48:15;;;;;;;11.30;10.40;;;26.40;1.00;;;;;;5001279;28;20514;-55
2022/09/07 12:50:55;;;;;;;11.80;10.60;;;26.30;1.00;;;;;;4992052;28;20619;-55
2022/09/07 12:53:29;;;;;;;12.13;11.03;;;26.10;1.00;;;;;;4992024;28;20401;-55
2022/09/07 12:56:18;;;;;;;12.20;11.17;;;26.00;1.00;;;;;;4991312;28;20446;-53
2022/09/07 12:59:21;;;;;;;12.93;11.73;;;26.00;1.00;;;;;;4991851;28;20525;-54
2022/09/07 13:02:04;;;;;;;12.70;11.40;;;26.00;1.00;;;;;;4991369;28;20920;-55
2022/09/07 13:04:57;;;;;;;13.03;12.00;;;25.90;1.00;;;;;;4991071;28;20966;-55
2022/09/07 13:07:50;;;;;;;13.77;11.97;;;25.80;1.00;;;;;;4991669;28;20482;-56
2022/09/07 13:10:31;;;;;;;13.27;12.10;;;25.60;1.00;;;;;;4991624;28;20454;-55
2022/09/07 13:13:03;;;;;;;13.20;12.10;;;25.50;1.00;;;;;;4990691;28;20442;-52